sensor_id;sensor_type;location;lat;lon;timestamp;P1;durP1;ratioP1;P2;durP2;ratioP2
62338;SDS011;48368;53.406;6.214;2023-07-13T00:10:21;24.98;;;6.72;;
62338;SDS011;48368;53.406;6.214;2023-07-13T01:03:46;12.18;;;3.35;;
62338;SDS011;48368;53.406;6.214;2023-07-13T01:22:11;11.70;;;2.72;;
62338;SDS011;48368;53.406;6.214;2023-07-13T03:28:41;13.60;;;3.20;;
62338;SDS011;48368;53.406;6.214;2023-07-13T03:36:06;13.50;;;3.60;;
62338;SDS011;48368;53.406;6.214;2023-07-13T03:54:51;14.48;;;4.40;;
62338;SDS011;48368;53.406;6.214;2023-07-13T03:58:37;12.73;;;4.53;;
62338;SDS011;48368;53.406;6.214;2023-07-13T04:26:00;18.45;;;4.93;;
62338;SDS011;48368;53.406;6.214;2023-07-13T05:05:56;19.02;;;6.63;;
62338;SDS011;48368;53.406;6.214;2023-07-13T05:11:37;20.90;;;6.68;;
62338;SDS011;48368;53.406;6.214;2023-07-13T05:14:12;19.45;;;6.30;;
62338;SDS011;48368;53.406;6.214;2023-07-13T05:16:59;20.33;;;6.75;;
62338;SDS011;48368;53.406;6.214;2023-07-13T05:20:16;18.77;;;6.82;;
62338;SDS011;48368;53.406;6.214;2023-07-13T05:30:09;20.95;;;7.10;;
62338;SDS011;48368;53.406;6.214;2023-07-13T05:36:14;24.77;;;7.45;;
62338;SDS011;48368;53.406;6.214;2023-07-13T05:39:29;15.80;;;5.88;;
62338;SDS011;48368;53.406;6.214;2023-07-13T05:42:17;17.80;;;5.50;;
62338;SDS011;48368;53.406;6.214;2023-07-13T05:45:21;18.88;;;5.57;;
62338;SDS011;48368;53.406;6.214;2023-07-13T05:48:10;14.52;;;5.75;;
62338;SDS011;48368;53.406;6.214;2023-07-13T05:50:56;14.38;;;5.75;;
62338;SDS011;48368;53.406;6.214;2023-07-13T06:01:09;13.03;;;4.27;;
62338;SDS011;48368;53.406;6.214;2023-07-13T06:03:54;16.90;;;4.47;;
62338;SDS011;48368;53.406;6.214;2023-07-13T06:07:06;11.98;;;4.38;;
62338;SDS011;48368;53.406;6.214;2023-07-13T06:24:25;11.63;;;3.38;;
62338;SDS011;48368;53.406;6.214;2023-07-13T06:26:56;14.52;;;3.10;;
62338;SDS011;48368;53.406;6.214;2023-07-13T06:41:34;8.02;;;2.85;;
62338;SDS011;48368;53.406;6.214;2023-07-13T06:44:18;15.07;;;3.42;;
62338;SDS011;48368;53.406;6.214;2023-07-13T06:47:21;12.45;;;3.05;;
62338;SDS011;48368;53.406;6.214;2023-07-13T06:50:13;9.02;;;2.72;;
62338;SDS011;48368;53.406;6.214;2023-07-13T06:57:24;8.88;;;2.85;;
62338;SDS011;48368;53.406;6.214;2023-07-13T07:17:54;7.55;;;2.83;;
62338;SDS011;48368;53.406;6.214;2023-07-13T07:27:35;8.75;;;2.55;;
62338;SDS011;48368;53.406;6.214;2023-07-13T07:30:07;9.00;;;2.53;;
62338;SDS011;48368;53.406;6.214;2023-07-13T07:42:24;10.48;;;3.13;;
62338;SDS011;48368;53.406;6.214;2023-07-13T07:45:00;15.00;;;3.40;;
62338;SDS011;48368;53.406;6.214;2023-07-13T07:47:31;7.07;;;2.60;;
62338;SDS011;48368;53.406;6.214;2023-07-13T07:50:15;7.68;;;2.28;;
62338;SDS011;48368;53.406;6.214;2023-07-13T07:52:45;11.95;;;2.85;;
62338;SDS011;48368;53.406;6.214;2023-07-13T07:55:19;7.07;;;2.63;;
62338;SDS011;48368;53.406;6.214;2023-07-13T07:58:18;8.40;;;2.40;;
62338;SDS011;48368;53.406;6.214;2023-07-13T08:06:37;6.93;;;2.55;;
62338;SDS011;48368;53.406;6.214;2023-07-13T08:09:18;7.22;;;2.30;;
62338;SDS011;48368;53.406;6.214;2023-07-13T08:12:06;10.63;;;2.65;;
62338;SDS011;48368;53.406;6.214;2023-07-13T08:14:56;9.40;;;4.75;;
62338;SDS011;48368;53.406;6.214;2023-07-13T08:17:26;11.43;;;3.03;;
62338;SDS011;48368;53.406;6.214;2023-07-13T08:20:29;8.65;;;2.90;;
62338;SDS011;48368;53.406;6.214;2023-07-13T08:23:01;7.57;;;2.50;;
62338;SDS011;48368;53.406;6.214;2023-07-13T08:25:32;7.30;;;2.97;;
62338;SDS011;48368;53.406;6.214;2023-07-13T08:31:42;10.77;;;3.05;;
62338;SDS011;48368;53.406;6.214;2023-07-13T08:34:55;8.98;;;3.13;;
62338;SDS011;48368;53.406;6.214;2023-07-13T08:47:43;11.95;;;3.30;;
62338;SDS011;48368;53.406;6.214;2023-07-13T08:53:40;17.17;;;3.72;;
62338;SDS011;48368;53.406;6.214;2023-07-13T08:56:39;11.27;;;3.00;;
62338;SDS011;48368;53.406;6.214;2023-07-13T08:59:15;11.10;;;3.65;;
62338;SDS011;48368;53.406;6.214;2023-07-13T09:04:52;12.27;;;3.67;;
62338;SDS011;48368;53.406;6.214;2023-07-13T09:25:02;7.47;;;2.63;;
62338;SDS011;48368;53.406;6.214;2023-07-13T09:28:19;7.43;;;2.70;;
62338;SDS011;48368;53.406;6.214;2023-07-13T09:31:57;10.98;;;3.00;;
62338;SDS011;48368;53.406;6.214;2023-07-13T09:35:12;7.30;;;2.13;;
62338;SDS011;48368;53.406;6.214;2023-07-13T09:37:52;9.68;;;2.63;;
62338;SDS011;48368;53.406;6.214;2023-07-13T09:46:59;5.75;;;1.85;;
62338;SDS011;48368;53.406;6.214;2023-07-13T09:49:35;6.10;;;1.83;;
62338;SDS011;48368;53.406;6.214;2023-07-13T09:55:39;7.63;;;2.33;;
62338;SDS011;48368;53.406;6.214;2023-07-13T09:58:48;4.68;;;2.03;;
62338;SDS011;48368;53.406;6.214;2023-07-13T10:02:00;6.07;;;1.67;;
62338;SDS011;48368;53.406;6.214;2023-07-13T10:04:45;5.53;;;2.00;;
62338;SDS011;48368;53.406;6.214;2023-07-13T10:07:14;8.13;;;1.90;;
62338;SDS011;48368;53.406;6.214;2023-07-13T10:09:42;4.68;;;1.95;;
62338;SDS011;48368;53.406;6.214;2023-07-13T10:15:50;9.60;;;2.88;;
62338;SDS011;48368;53.406;6.214;2023-07-13T10:18:48;7.65;;;2.08;;
62338;SDS011;48368;53.406;6.214;2023-07-13T10:22:13;9.93;;;2.25;;
62338;SDS011;48368;53.406;6.214;2023-07-13T10:28:38;6.50;;;1.98;;
62338;SDS011;48368;53.406;6.214;2023-07-13T10:31:32;9.40;;;2.58;;
62338;SDS011;48368;53.406;6.214;2023-07-13T10:34:05;6.57;;;2.17;;
62338;SDS011;48368;53.406;6.214;2023-07-13T10:36:47;8.30;;;2.10;;
62338;SDS011;48368;53.406;6.214;2023-07-13T10:39:45;8.48;;;2.30;;
62338;SDS011;48368;53.406;6.214;2023-07-13T10:42:18;5.63;;;2.00;;
62338;SDS011;48368;53.406;6.214;2023-07-13T10:45:45;7.05;;;2.55;;
62338;SDS011;48368;53.406;6.214;2023-07-13T10:48:34;8.18;;;2.47;;
62338;SDS011;48368;53.406;6.214;2023-07-13T10:51:10;8.20;;;2.75;;
62338;SDS011;48368;53.406;6.214;2023-07-13T10:59:06;5.75;;;2.33;;
62338;SDS011;48368;53.406;6.214;2023-07-13T11:04:52;8.32;;;2.78;;
62338;SDS011;48368;53.406;6.214;2023-07-13T11:07:30;6.25;;;2.40;;
62338;SDS011;48368;53.406;6.214;2023-07-13T11:10:46;6.28;;;2.42;;
62338;SDS011;48368;53.406;6.214;2023-07-13T11:19:23;6.22;;;3.05;;
62338;SDS011;48368;53.406;6.214;2023-07-13T11:22:19;8.20;;;2.92;;
62338;SDS011;48368;53.406;6.214;2023-07-13T11:25:20;6.28;;;3.22;;
62338;SDS011;48368;53.406;6.214;2023-07-13T11:27:52;8.32;;;3.92;;
62338;SDS011;48368;53.406;6.214;2023-07-13T11:33:49;9.10;;;2.83;;
62338;SDS011;48368;53.406;6.214;2023-07-13T11:36:23;4.75;;;2.40;;
62338;SDS011;48368;53.406;6.214;2023-07-13T11:41:59;7.38;;;3.30;;
62338;SDS011;48368;53.406;6.214;2023-07-13T11:44:29;5.78;;;2.72;;
62338;SDS011;48368;53.406;6.214;2023-07-13T11:46:57;9.30;;;3.45;;
62338;SDS011;48368;53.406;6.214;2023-07-13T11:49:29;9.00;;;2.58;;
62338;SDS011;48368;53.406;6.214;2023-07-13T11:52:05;9.50;;;2.70;;
62338;SDS011;48368;53.406;6.214;2023-07-13T11:54:57;9.10;;;3.13;;
62338;SDS011;48368;53.406;6.214;2023-07-13T11:57:26;12.10;;;4.00;;
62338;SDS011;48368;53.406;6.214;2023-07-13T11:59:56;8.93;;;2.90;;
62338;SDS011;48368;53.406;6.214;2023-07-13T12:02:32;14.43;;;3.70;;
62338;SDS011;48368;53.406;6.214;2023-07-13T12:05:01;11.45;;;3.70;;
62338;SDS011;48368;53.406;6.214;2023-07-13T12:07:29;13.55;;;3.72;;
62338;SDS011;48368;53.406;6.214;2023-07-13T12:10:00;14.52;;;4.13;;
62338;SDS011;48368;53.406;6.214;2023-07-13T12:12:55;6.88;;;3.25;;
62338;SDS011;48368;53.406;6.214;2023-07-13T12:15:43;9.60;;;3.15;;
62338;SDS011;48368;53.406;6.214;2023-07-13T12:18:15;8.82;;;3.20;;
62338;SDS011;48368;53.406;6.214;2023-07-13T12:20:44;8.30;;;3.00;;
62338;SDS011;48368;53.406;6.214;2023-07-13T12:23:22;9.18;;;3.58;;
62338;SDS011;48368;53.406;6.214;2023-07-13T12:25:51;10.35;;;3.10;;
62338;SDS011;48368;53.406;6.214;2023-07-13T12:28:37;13.70;;;3.42;;
62338;SDS011;48368;53.406;6.214;2023-07-13T12:34:23;12.57;;;4.28;;
62338;SDS011;48368;53.406;6.214;2023-07-13T12:36:56;13.40;;;3.85;;
62338;SDS011;48368;53.406;6.214;2023-07-13T12:48:04;14.85;;;4.38;;
62338;SDS011;48368;53.406;6.214;2023-07-13T12:50:42;10.45;;;3.65;;
62338;SDS011;48368;53.406;6.214;2023-07-13T12:53:12;10.48;;;3.10;;
62338;SDS011;48368;53.406;6.214;2023-07-13T12:55:47;10.75;;;3.80;;
62338;SDS011;48368;53.406;6.214;2023-07-13T12:58:16;13.85;;;4.18;;
62338;SDS011;48368;53.406;6.214;2023-07-13T13:01:03;10.88;;;3.60;;
62338;SDS011;48368;53.406;6.214;2023-07-13T13:03:40;10.95;;;3.30;;
62338;SDS011;48368;53.406;6.214;2023-07-13T13:08:40;11.60;;;3.50;;
62338;SDS011;48368;53.406;6.214;2023-07-13T13:11:08;7.75;;;3.95;;
62338;SDS011;48368;53.406;6.214;2023-07-13T13:13:34;13.52;;;3.97;;
62338;SDS011;48368;53.406;6.214;2023-07-13T13:18:53;8.95;;;3.67;;
62338;SDS011;48368;53.406;6.214;2023-07-13T13:21:22;11.68;;;3.90;;
62338;SDS011;48368;53.406;6.214;2023-07-13T13:23:49;8.50;;;3.72;;
62338;SDS011;48368;53.406;6.214;2023-07-13T13:26:16;11.15;;;3.88;;
62338;SDS011;48368;53.406;6.214;2023-07-13T13:28:42;8.93;;;3.85;;
62338;SDS011;48368;53.406;6.214;2023-07-13T13:31:09;12.07;;;3.90;;
62338;SDS011;48368;53.406;6.214;2023-07-13T13:33:42;10.13;;;4.70;;
62338;SDS011;48368;53.406;6.214;2023-07-13T13:38:57;10.20;;;4.28;;
62338;SDS011;48368;53.406;6.214;2023-07-13T13:41:23;12.35;;;3.65;;
62338;SDS011;48368;53.406;6.214;2023-07-13T13:43:51;15.00;;;3.92;;
62338;SDS011;48368;53.406;6.214;2023-07-13T13:46:18;11.80;;;3.78;;
62338;SDS011;48368;53.406;6.214;2023-07-13T13:48:46;15.15;;;4.60;;
62338;SDS011;48368;53.406;6.214;2023-07-13T13:51:19;12.75;;;4.13;;
62338;SDS011;48368;53.406;6.214;2023-07-13T13:53:46;12.32;;;4.65;;
62338;SDS011;48368;53.406;6.214;2023-07-13T13:56:17;11.25;;;4.18;;
62338;SDS011;48368;53.406;6.214;2023-07-13T13:58:46;11.57;;;4.30;;
62338;SDS011;48368;53.406;6.214;2023-07-13T14:01:13;11.27;;;4.43;;
62338;SDS011;48368;53.406;6.214;2023-07-13T14:03:43;10.52;;;4.40;;
62338;SDS011;48368;53.406;6.214;2023-07-13T14:06:12;16.58;;;4.95;;
62338;SDS011;48368;53.406;6.214;2023-07-13T14:08:42;14.32;;;4.72;;
62338;SDS011;48368;53.406;6.214;2023-07-13T14:11:16;12.95;;;4.60;;
62338;SDS011;48368;53.406;6.214;2023-07-13T14:13:51;15.38;;;5.60;;
62338;SDS011;48368;53.406;6.214;2023-07-13T14:16:28;11.95;;;3.83;;
62338;SDS011;48368;53.406;6.214;2023-07-13T14:18:57;13.02;;;3.90;;
62338;SDS011;48368;53.406;6.214;2023-07-13T14:21:25;7.88;;;4.10;;
62338;SDS011;48368;53.406;6.214;2023-07-13T14:23:52;11.10;;;3.78;;
62338;SDS011;48368;53.406;6.214;2023-07-13T14:26:19;7.43;;;3.90;;
62338;SDS011;48368;53.406;6.214;2023-07-13T14:28:50;9.50;;;3.85;;
62338;SDS011;48368;53.406;6.214;2023-07-13T14:31:20;10.45;;;3.75;;
62338;SDS011;48368;53.406;6.214;2023-07-13T14:33:47;9.20;;;4.72;;
62338;SDS011;48368;53.406;6.214;2023-07-13T14:38:59;11.60;;;4.00;;
62338;SDS011;48368;53.406;6.214;2023-07-13T14:41:58;8.68;;;3.78;;
62338;SDS011;48368;53.406;6.214;2023-07-13T14:44:25;9.70;;;3.50;;
62338;SDS011;48368;53.406;6.214;2023-07-13T14:46:58;12.43;;;3.92;;
62338;SDS011;48368;53.406;6.214;2023-07-13T14:49:30;12.18;;;4.40;;
62338;SDS011;48368;53.406;6.214;2023-07-13T14:52:17;11.52;;;4.10;;
62338;SDS011;48368;53.406;6.214;2023-07-13T14:54:47;9.25;;;3.60;;
62338;SDS011;48368;53.406;6.214;2023-07-13T14:57:19;16.25;;;4.35;;
62338;SDS011;48368;53.406;6.214;2023-07-13T14:59:48;8.50;;;4.03;;
62338;SDS011;48368;53.406;6.214;2023-07-13T15:02:18;9.13;;;4.18;;
62338;SDS011;48368;53.406;6.214;2023-07-13T15:04:55;12.90;;;5.53;;
62338;SDS011;48368;53.406;6.214;2023-07-13T15:07:21;13.00;;;4.80;;
62338;SDS011;48368;53.406;6.214;2023-07-13T15:09:48;13.77;;;4.30;;
62338;SDS011;48368;53.406;6.214;2023-07-13T15:12:14;9.70;;;3.58;;
62338;SDS011;48368;53.406;6.214;2023-07-13T15:14:42;10.73;;;4.00;;
62338;SDS011;48368;53.406;6.214;2023-07-13T15:17:53;11.68;;;3.90;;
62338;SDS011;48368;53.406;6.214;2023-07-13T15:20:01;11.43;;;4.45;;
62338;SDS011;48368;53.406;6.214;2023-07-13T15:22:50;11.98;;;4.55;;
62338;SDS011;48368;53.406;6.214;2023-07-13T15:25:27;10.00;;;3.80;;
62338;SDS011;48368;53.406;6.214;2023-07-13T15:30:58;8.52;;;3.78;;
62338;SDS011;48368;53.406;6.214;2023-07-13T15:33:20;13.10;;;4.63;;
62338;SDS011;48368;53.406;6.214;2023-07-13T15:35:54;16.10;;;4.22;;
62338;SDS011;48368;53.406;6.214;2023-07-13T15:38:22;12.30;;;4.07;;
62338;SDS011;48368;53.406;6.214;2023-07-13T15:40:50;10.57;;;4.13;;
62338;SDS011;48368;53.406;6.214;2023-07-13T15:43:17;9.43;;;3.65;;
62338;SDS011;48368;53.406;6.214;2023-07-13T15:45:44;11.30;;;5.10;;
62338;SDS011;48368;53.406;6.214;2023-07-13T15:48:15;9.68;;;3.85;;
62338;SDS011;48368;53.406;6.214;2023-07-13T15:50:49;9.70;;;3.80;;
62338;SDS011;48368;53.406;6.214;2023-07-13T15:56:16;10.27;;;4.63;;
62338;SDS011;48368;53.406;6.214;2023-07-13T15:58:47;8.20;;;4.20;;
62338;SDS011;48368;53.406;6.214;2023-07-13T16:01:13;9.57;;;3.88;;
62338;SDS011;48368;53.406;6.214;2023-07-13T16:03:42;12.32;;;4.03;;
62338;SDS011;48368;53.406;6.214;2023-07-13T16:06:28;12.00;;;4.10;;
62338;SDS011;48368;53.406;6.214;2023-07-13T16:08:58;7.10;;;3.50;;
62338;SDS011;48368;53.406;6.214;2023-07-13T16:11:24;9.80;;;3.80;;
62338;SDS011;48368;53.406;6.214;2023-07-13T16:13:52;8.18;;;4.45;;
62338;SDS011;48368;53.406;6.214;2023-07-13T16:16:21;10.45;;;3.72;;
62338;SDS011;48368;53.406;6.214;2023-07-13T16:18:51;7.88;;;3.53;;
62338;SDS011;48368;53.406;6.214;2023-07-13T16:21:28;8.10;;;4.35;;
62338;SDS011;48368;53.406;6.214;2023-07-13T16:23:56;9.75;;;3.72;;
62338;SDS011;48368;53.406;6.214;2023-07-13T16:26:25;8.50;;;3.90;;
62338;SDS011;48368;53.406;6.214;2023-07-13T16:29:12;10.00;;;4.05;;
62338;SDS011;48368;53.406;6.214;2023-07-13T16:31:54;10.65;;;4.10;;
62338;SDS011;48368;53.406;6.214;2023-07-13T16:34:25;8.07;;;3.47;;
62338;SDS011;48368;53.406;6.214;2023-07-13T16:36:51;10.32;;;3.60;;
62338;SDS011;48368;53.406;6.214;2023-07-13T16:39:17;11.43;;;3.95;;
62338;SDS011;48368;53.406;6.214;2023-07-13T16:41:43;13.13;;;4.40;;
62338;SDS011;48368;53.406;6.214;2023-07-13T16:44:12;12.10;;;3.83;;
62338;SDS011;48368;53.406;6.214;2023-07-13T16:46:42;7.10;;;3.38;;
62338;SDS011;48368;53.406;6.214;2023-07-13T16:52:04;7.50;;;3.50;;
62338;SDS011;48368;53.406;6.214;2023-07-13T16:54:31;12.40;;;3.95;;
62338;SDS011;48368;53.406;6.214;2023-07-13T16:56:59;11.73;;;4.45;;
62338;SDS011;48368;53.406;6.214;2023-07-13T16:59:31;8.90;;;3.78;;
62338;SDS011;48368;53.406;6.214;2023-07-13T17:02:02;8.48;;;3.95;;
62338;SDS011;48368;53.406;6.214;2023-07-13T17:04:59;8.18;;;3.30;;
62338;SDS011;48368;53.406;6.214;2023-07-13T17:07:26;6.93;;;3.63;;
62338;SDS011;48368;53.406;6.214;2023-07-13T17:09:54;8.10;;;3.60;;
62338;SDS011;48368;53.406;6.214;2023-07-13T17:12:20;8.65;;;3.45;;
62338;SDS011;48368;53.406;6.214;2023-07-13T17:14:47;11.70;;;4.05;;
62338;SDS011;48368;53.406;6.214;2023-07-13T17:17:14;10.98;;;3.60;;
62338;SDS011;48368;53.406;6.214;2023-07-13T17:19:56;8.27;;;3.53;;
62338;SDS011;48368;53.406;6.214;2023-07-13T17:22:24;9.75;;;3.58;;
62338;SDS011;48368;53.406;6.214;2023-07-13T17:24:53;8.90;;;3.72;;
62338;SDS011;48368;53.406;6.214;2023-07-13T17:27:19;8.43;;;3.75;;
62338;SDS011;48368;53.406;6.214;2023-07-13T17:29:46;8.07;;;3.72;;
62338;SDS011;48368;53.406;6.214;2023-07-13T17:32:30;10.85;;;4.32;;
62338;SDS011;48368;53.406;6.214;2023-07-13T17:34:56;9.43;;;3.70;;
62338;SDS011;48368;53.406;6.214;2023-07-13T17:37:22;11.85;;;4.10;;
62338;SDS011;48368;53.406;6.214;2023-07-13T17:39:47;9.45;;;4.30;;
62338;SDS011;48368;53.406;6.214;2023-07-13T17:42:25;9.48;;;3.95;;
62338;SDS011;48368;53.406;6.214;2023-07-13T17:44:57;8.63;;;4.43;;
62338;SDS011;48368;53.406;6.214;2023-07-13T17:47:26;10.93;;;4.23;;
62338;SDS011;48368;53.406;6.214;2023-07-13T17:49:52;7.28;;;3.80;;
62338;SDS011;48368;53.406;6.214;2023-07-13T17:52:19;8.48;;;3.60;;
62338;SDS011;48368;53.406;6.214;2023-07-13T17:54:44;8.40;;;4.03;;
62338;SDS011;48368;53.406;6.214;2023-07-13T17:57:10;9.00;;;4.28;;
62338;SDS011;48368;53.406;6.214;2023-07-13T17:59:36;10.18;;;4.22;;
62338;SDS011;48368;53.406;6.214;2023-07-13T18:02:09;7.93;;;3.70;;
62338;SDS011;48368;53.406;6.214;2023-07-13T18:04:42;9.40;;;4.22;;
62338;SDS011;48368;53.406;6.214;2023-07-13T18:07:11;12.40;;;5.13;;
62338;SDS011;48368;53.406;6.214;2023-07-13T18:09:42;10.15;;;3.90;;
62338;SDS011;48368;53.406;6.214;2023-07-13T18:12:11;9.27;;;3.72;;
62338;SDS011;48368;53.406;6.214;2023-07-13T18:14:37;11.63;;;4.50;;
62338;SDS011;48368;53.406;6.214;2023-07-13T18:17:07;11.35;;;4.28;;
62338;SDS011;48368;53.406;6.214;2023-07-13T18:19:38;6.95;;;3.47;;
62338;SDS011;48368;53.406;6.214;2023-07-13T18:22:09;8.68;;;4.40;;
62338;SDS011;48368;53.406;6.214;2023-07-13T18:24:40;7.07;;;3.70;;
62338;SDS011;48368;53.406;6.214;2023-07-13T18:27:09;10.50;;;4.10;;
62338;SDS011;48368;53.406;6.214;2023-07-13T18:29:36;10.10;;;4.18;;
62338;SDS011;48368;53.406;6.214;2023-07-13T18:32:05;9.57;;;4.28;;
62338;SDS011;48368;53.406;6.214;2023-07-13T18:34:34;9.95;;;4.75;;
62338;SDS011;48368;53.406;6.214;2023-07-13T18:37:02;10.45;;;4.25;;
62338;SDS011;48368;53.406;6.214;2023-07-13T18:39:28;10.18;;;4.35;;
62338;SDS011;48368;53.406;6.214;2023-07-13T18:41:53;9.73;;;4.50;;
62338;SDS011;48368;53.406;6.214;2023-07-13T18:44:20;8.82;;;4.43;;
62338;SDS011;48368;53.406;6.214;2023-07-13T18:46:46;8.93;;;4.28;;
62338;SDS011;48368;53.406;6.214;2023-07-13T18:49:12;12.35;;;4.57;;
62338;SDS011;48368;53.406;6.214;2023-07-13T18:51:38;13.30;;;5.38;;
62338;SDS011;48368;53.406;6.214;2023-07-13T18:54:05;13.23;;;5.25;;
62338;SDS011;48368;53.406;6.214;2023-07-13T18:56:37;10.65;;;5.28;;
62338;SDS011;48368;53.406;6.214;2023-07-13T18:59:02;8.93;;;4.65;;
62338;SDS011;48368;53.406;6.214;2023-07-13T19:01:29;13.07;;;5.45;;
62338;SDS011;48368;53.406;6.214;2023-07-13T19:04:00;13.77;;;5.45;;
62338;SDS011;48368;53.406;6.214;2023-07-13T19:06:44;14.73;;;5.90;;
62338;SDS011;48368;53.406;6.214;2023-07-13T19:09:10;11.98;;;5.60;;
62338;SDS011;48368;53.406;6.214;2023-07-13T19:11:40;11.80;;;5.25;;
62338;SDS011;48368;53.406;6.214;2023-07-13T19:14:09;15.50;;;5.78;;
62338;SDS011;48368;53.406;6.214;2023-07-13T19:16:40;14.07;;;6.35;;
62338;SDS011;48368;53.406;6.214;2023-07-13T19:19:14;12.13;;;5.80;;
62338;SDS011;48368;53.406;6.214;2023-07-13T19:21:41;12.18;;;5.53;;
62338;SDS011;48368;53.406;6.214;2023-07-13T19:24:41;15.65;;;6.00;;
62338;SDS011;48368;53.406;6.214;2023-07-13T19:27:02;16.35;;;6.18;;
62338;SDS011;48368;53.406;6.214;2023-07-13T19:29:28;15.57;;;6.03;;
62338;SDS011;48368;53.406;6.214;2023-07-13T19:31:55;14.25;;;6.47;;
62338;SDS011;48368;53.406;6.214;2023-07-13T19:34:24;10.77;;;6.07;;
62338;SDS011;48368;53.406;6.214;2023-07-13T19:36:53;15.18;;;6.82;;
62338;SDS011;48368;53.406;6.214;2023-07-13T19:42:23;13.48;;;5.45;;
62338;SDS011;48368;53.406;6.214;2023-07-13T19:44:50;12.90;;;6.15;;
62338;SDS011;48368;53.406;6.214;2023-07-13T19:47:20;13.30;;;5.90;;
62338;SDS011;48368;53.406;6.214;2023-07-13T19:49:46;9.25;;;5.90;;
62338;SDS011;48368;53.406;6.214;2023-07-13T19:52:16;12.95;;;5.60;;
62338;SDS011;48368;53.406;6.214;2023-07-13T19:54:44;18.35;;;5.93;;
62338;SDS011;48368;53.406;6.214;2023-07-13T19:57:15;13.95;;;5.82;;
62338;SDS011;48368;53.406;6.214;2023-07-13T19:59:43;13.00;;;5.47;;
62338;SDS011;48368;53.406;6.214;2023-07-13T20:02:28;13.38;;;6.10;;
62338;SDS011;48368;53.406;6.214;2023-07-13T20:04:53;14.20;;;6.40;;
62338;SDS011;48368;53.406;6.214;2023-07-13T20:07:20;13.90;;;5.43;;
62338;SDS011;48368;53.406;6.214;2023-07-13T20:09:50;10.13;;;5.78;;
62338;SDS011;48368;53.406;6.214;2023-07-13T20:12:21;10.35;;;5.57;;
62338;SDS011;48368;53.406;6.214;2023-07-13T20:14:50;10.15;;;5.93;;
62338;SDS011;48368;53.406;6.214;2023-07-13T20:17:35;11.20;;;5.72;;
62338;SDS011;48368;53.406;6.214;2023-07-13T20:20:15;13.23;;;6.07;;
62338;SDS011;48368;53.406;6.214;2023-07-13T20:22:50;15.38;;;6.13;;
62338;SDS011;48368;53.406;6.214;2023-07-13T20:25:18;11.70;;;5.95;;
62338;SDS011;48368;53.406;6.214;2023-07-13T20:27:56;15.68;;;6.55;;
62338;SDS011;48368;53.406;6.214;2023-07-13T20:30:26;13.38;;;6.20;;
62338;SDS011;48368;53.406;6.214;2023-07-13T20:32:59;11.77;;;6.03;;
62338;SDS011;48368;53.406;6.214;2023-07-13T20:35:31;14.93;;;7.72;;
62338;SDS011;48368;53.406;6.214;2023-07-13T20:38:09;12.15;;;6.05;;
62338;SDS011;48368;53.406;6.214;2023-07-13T20:40:42;13.98;;;6.40;;
62338;SDS011;48368;53.406;6.214;2023-07-13T20:43:08;15.48;;;8.15;;
62338;SDS011;48368;53.406;6.214;2023-07-13T20:45:34;15.50;;;7.47;;
62338;SDS011;48368;53.406;6.214;2023-07-13T20:51:04;15.63;;;7.05;;
62338;SDS011;48368;53.406;6.214;2023-07-13T20:53:32;16.98;;;7.05;;
62338;SDS011;48368;53.406;6.214;2023-07-13T20:56:04;19.02;;;6.95;;
62338;SDS011;48368;53.406;6.214;2023-07-13T20:58:56;15.38;;;6.88;;
62338;SDS011;48368;53.406;6.214;2023-07-13T21:01:34;19.25;;;7.13;;
62338;SDS011;48368;53.406;6.214;2023-07-13T21:04:15;18.25;;;7.75;;
62338;SDS011;48368;53.406;6.214;2023-07-13T21:06:40;15.55;;;8.00;;
62338;SDS011;48368;53.406;6.214;2023-07-13T21:09:16;19.63;;;6.93;;
62338;SDS011;48368;53.406;6.214;2023-07-13T21:11:43;15.38;;;7.70;;
62338;SDS011;48368;53.406;6.214;2023-07-13T21:14:08;17.30;;;8.25;;
62338;SDS011;48368;53.406;6.214;2023-07-13T21:16:34;16.65;;;8.70;;
62338;SDS011;48368;53.406;6.214;2023-07-13T21:19:01;17.58;;;8.20;;
62338;SDS011;48368;53.406;6.214;2023-07-13T21:21:35;14.38;;;7.18;;
62338;SDS011;48368;53.406;6.214;2023-07-13T21:24:01;15.35;;;6.63;;
62338;SDS011;48368;53.406;6.214;2023-07-13T21:26:27;16.77;;;7.68;;
62338;SDS011;48368;53.406;6.214;2023-07-13T21:28:55;15.80;;;8.18;;
62338;SDS011;48368;53.406;6.214;2023-07-13T21:31:28;15.27;;;7.72;;
62338;SDS011;48368;53.406;6.214;2023-07-13T21:34:05;12.30;;;7.07;;
62338;SDS011;48368;53.406;6.214;2023-07-13T21:36:37;15.43;;;6.95;;
62338;SDS011;48368;53.406;6.214;2023-07-13T21:39:04;14.98;;;7.20;;
62338;SDS011;48368;53.406;6.214;2023-07-13T21:41:35;13.88;;;7.97;;
62338;SDS011;48368;53.406;6.214;2023-07-13T21:44:02;18.48;;;7.53;;
62338;SDS011;48368;53.406;6.214;2023-07-13T21:46:56;12.60;;;7.72;;
62338;SDS011;48368;53.406;6.214;2023-07-13T21:49:22;15.30;;;7.40;;
62338;SDS011;48368;53.406;6.214;2023-07-13T21:51:49;18.38;;;8.00;;
62338;SDS011;48368;53.406;6.214;2023-07-13T21:54:15;18.67;;;7.75;;
62338;SDS011;48368;53.406;6.214;2023-07-13T21:56:42;13.02;;;7.15;;
62338;SDS011;48368;53.406;6.214;2023-07-13T22:01:48;16.38;;;8.02;;
62338;SDS011;48368;53.406;6.214;2023-07-13T22:04:14;15.30;;;7.93;;
62338;SDS011;48368;53.406;6.214;2023-07-13T22:09:40;13.35;;;7.75;;
62338;SDS011;48368;53.406;6.214;2023-07-13T22:13:39;14.30;;;7.72;;
62338;SDS011;48368;53.406;6.214;2023-07-13T22:16:21;16.40;;;8.05;;
62338;SDS011;48368;53.406;6.214;2023-07-13T22:19:08;19.42;;;9.48;;
62338;SDS011;48368;53.406;6.214;2023-07-13T22:24:34;16.13;;;7.85;;
62338;SDS011;48368;53.406;6.214;2023-07-13T22:27:03;14.82;;;8.80;;
62338;SDS011;48368;53.406;6.214;2023-07-13T22:29:45;16.60;;;8.30;;
62338;SDS011;48368;53.406;6.214;2023-07-13T22:32:25;17.45;;;7.88;;
62338;SDS011;48368;53.406;6.214;2023-07-13T22:34:53;15.80;;;8.60;;
62338;SDS011;48368;53.406;6.214;2023-07-13T22:37:30;17.40;;;8.95;;
62338;SDS011;48368;53.406;6.214;2023-07-13T22:40:13;18.03;;;8.53;;
62338;SDS011;48368;53.406;6.214;2023-07-13T22:42:42;18.10;;;8.93;;
62338;SDS011;48368;53.406;6.214;2023-07-13T22:45:13;22.38;;;9.18;;
62338;SDS011;48368;53.406;6.214;2023-07-13T22:47:49;15.70;;;8.50;;
62338;SDS011;48368;53.406;6.214;2023-07-13T22:56:28;18.73;;;9.20;;
62338;SDS011;48368;53.406;6.214;2023-07-13T22:59:00;15.13;;;8.73;;
62338;SDS011;48368;53.406;6.214;2023-07-13T23:01:29;13.32;;;9.50;;
62338;SDS011;48368;53.406;6.214;2023-07-13T23:03:57;20.23;;;10.32;;
62338;SDS011;48368;53.406;6.214;2023-07-13T23:06:44;22.27;;;10.38;;
62338;SDS011;48368;53.406;6.214;2023-07-13T23:12:02;23.70;;;11.60;;
62338;SDS011;48368;53.406;6.214;2023-07-13T23:14:39;15.70;;;9.75;;
62338;SDS011;48368;53.406;6.214;2023-07-13T23:17:11;17.02;;;10.40;;
62338;SDS011;48368;53.406;6.214;2023-07-13T23:19:53;16.45;;;10.32;;
62338;SDS011;48368;53.406;6.214;2023-07-13T23:22:22;19.73;;;11.48;;
62338;SDS011;48368;53.406;6.214;2023-07-13T23:24:54;20.50;;;11.20;;
62338;SDS011;48368;53.406;6.214;2023-07-13T23:27:28;18.83;;;11.77;;
62338;SDS011;48368;53.406;6.214;2023-07-13T23:29:57;20.55;;;10.30;;
62338;SDS011;48368;53.406;6.214;2023-07-13T23:33:00;20.33;;;11.00;;
62338;SDS011;48368;53.406;6.214;2023-07-13T23:36:10;22.80;;;11.55;;
62338;SDS011;48368;53.406;6.214;2023-07-13T23:39:05;18.45;;;11.30;;
62338;SDS011;48368;53.406;6.214;2023-07-13T23:41:50;19.85;;;11.15;;
62338;SDS011;48368;53.406;6.214;2023-07-13T23:44:30;19.73;;;10.70;;
62338;SDS011;48368;53.406;6.214;2023-07-13T23:46:56;21.15;;;11.07;;
62338;SDS011;48368;53.406;6.214;2023-07-13T23:49:31;20.35;;;10.60;;
62338;SDS011;48368;53.406;6.214;2023-07-13T23:51:58;18.42;;;11.23;;
62338;SDS011;48368;53.406;6.214;2023-07-13T23:54:31;22.65;;;11.60;;